sensor_id;sensor_type;location;lat;lon;timestamp;P1;durP1;ratioP1;P2;durP2;ratioP2
20655;SDS011;10487;53.320;8.672;2022-12-16T00:01:16;0.50;;;0.40;;
20655;SDS011;10487;53.320;8.672;2022-12-16T00:04:19;0.85;;;0.55;;
20655;SDS011;10487;53.320;8.672;2022-12-16T00:07:21;0.32;;;0.32;;
20655;SDS011;10487;53.320;8.672;2022-12-16T00:10:22;0.32;;;0.30;;
20655;SDS011;10487;53.320;8.672;2022-12-16T00:13:24;0.40;;;0.40;;
20655;SDS011;10487;53.320;8.672;2022-12-16T00:16:26;0.32;;;0.32;;
20655;SDS011;10487;53.320;8.672;2022-12-16T00:19:27;0.40;;;0.32;;
20655;SDS011;10487;53.320;8.672;2022-12-16T00:22:29;0.40;;;0.30;;
20655;SDS011;10487;53.320;8.672;2022-12-16T00:25:31;0.38;;;0.38;;
20655;SDS011;10487;53.320;8.672;2022-12-16T00:28:32;0.30;;;0.30;;
20655;SDS011;10487;53.320;8.672;2022-12-16T00:31:34;0.50;;;0.40;;
20655;SDS011;10487;53.320;8.672;2022-12-16T00:34:36;0.30;;;0.30;;
20655;SDS011;10487;53.320;8.672;2022-12-16T00:37:37;0.50;;;0.40;;
20655;SDS011;10487;53.320;8.672;2022-12-16T00:40:39;0.20;;;0.20;;
20655;SDS011;10487;53.320;8.672;2022-12-16T00:43:41;0.45;;;0.35;;
20655;SDS011;10487;53.320;8.672;2022-12-16T00:46:42;0.30;;;0.30;;
20655;SDS011;10487;53.320;8.672;2022-12-16T00:49:44;0.32;;;0.30;;
20655;SDS011;10487;53.320;8.672;2022-12-16T00:52:46;0.50;;;0.38;;
20655;SDS011;10487;53.320;8.672;2022-12-16T00:55:48;0.40;;;0.40;;
20655;SDS011;10487;53.320;8.672;2022-12-16T00:58:50;0.28;;;0.28;;
20655;SDS011;10487;53.320;8.672;2022-12-16T01:01:52;0.40;;;0.40;;
20655;SDS011;10487;53.320;8.672;2022-12-16T01:04:55;0.52;;;0.40;;
20655;SDS011;10487;53.320;8.672;2022-12-16T01:07:57;0.50;;;0.40;;
20655;SDS011;10487;53.320;8.672;2022-12-16T01:10:58;0.47;;;0.43;;
20655;SDS011;10487;53.320;8.672;2022-12-16T01:14:00;0.50;;;0.30;;
20655;SDS011;10487;53.320;8.672;2022-12-16T01:17:02;0.30;;;0.30;;
20655;SDS011;10487;53.320;8.672;2022-12-16T01:20:03;0.75;;;0.40;;
20655;SDS011;10487;53.320;8.672;2022-12-16T01:23:05;0.90;;;0.40;;
20655;SDS011;10487;53.320;8.672;2022-12-16T01:26:08;1.25;;;0.40;;
20655;SDS011;10487;53.320;8.672;2022-12-16T01:29:15;0.57;;;0.40;;
20655;SDS011;10487;53.320;8.672;2022-12-16T01:32:17;0.35;;;0.35;;
20655;SDS011;10487;53.320;8.672;2022-12-16T01:35:18;0.40;;;0.40;;
20655;SDS011;10487;53.320;8.672;2022-12-16T01:38:40;0.40;;;0.30;;
20655;SDS011;10487;53.320;8.672;2022-12-16T01:41:44;0.65;;;0.40;;
20655;SDS011;10487;53.320;8.672;2022-12-16T01:44:47;0.43;;;0.40;;
20655;SDS011;10487;53.320;8.672;2022-12-16T01:47:52;0.45;;;0.40;;
20655;SDS011;10487;53.320;8.672;2022-12-16T01:50:58;0.65;;;0.30;;
20655;SDS011;10487;53.320;8.672;2022-12-16T01:57:47;1.00;;;0.50;;
20655;SDS011;10487;53.320;8.672;2022-12-16T02:00:55;0.70;;;0.50;;
20655;SDS011;10487;53.320;8.672;2022-12-16T02:03:57;0.40;;;0.40;;
20655;SDS011;10487;53.320;8.672;2022-12-16T02:07:02;0.50;;;0.50;;
20655;SDS011;10487;53.320;8.672;2022-12-16T02:10:03;0.82;;;0.50;;
20655;SDS011;10487;53.320;8.672;2022-12-16T02:29:18;0.40;;;0.30;;
20655;SDS011;10487;53.320;8.672;2022-12-16T02:40:03;0.80;;;0.60;;
20655;SDS011;10487;53.320;8.672;2022-12-16T02:46:34;0.70;;;0.50;;
20655;SDS011;10487;53.320;8.672;2022-12-16T02:52:44;0.95;;;0.50;;
20655;SDS011;10487;53.320;8.672;2022-12-16T02:59:15;0.70;;;0.60;;
20655;SDS011;10487;53.320;8.672;2022-12-16T03:02:25;0.50;;;0.50;;
20655;SDS011;10487;53.320;8.672;2022-12-16T03:05:37;0.60;;;0.30;;
20655;SDS011;10487;53.320;8.672;2022-12-16T03:08:42;0.30;;;0.30;;
20655;SDS011;10487;53.320;8.672;2022-12-16T03:11:49;0.50;;;0.47;;
20655;SDS011;10487;53.320;8.672;2022-12-16T03:14:54;0.40;;;0.40;;
20655;SDS011;10487;53.320;8.672;2022-12-16T03:17:56;0.60;;;0.50;;
20655;SDS011;10487;53.320;8.672;2022-12-16T03:21:04;1.27;;;0.80;;
20655;SDS011;10487;53.320;8.672;2022-12-16T03:24:08;0.60;;;0.50;;
20655;SDS011;10487;53.320;8.672;2022-12-16T03:30:35;0.88;;;0.60;;
20655;SDS011;10487;53.320;8.672;2022-12-16T03:33:42;0.45;;;0.40;;
20655;SDS011;10487;53.320;8.672;2022-12-16T03:36:52;0.40;;;0.40;;
20655;SDS011;10487;53.320;8.672;2022-12-16T03:39:58;0.45;;;0.40;;
20655;SDS011;10487;53.320;8.672;2022-12-16T03:43:03;0.50;;;0.50;;
20655;SDS011;10487;53.320;8.672;2022-12-16T03:46:07;0.60;;;0.50;;
20655;SDS011;10487;53.320;8.672;2022-12-16T03:49:10;0.95;;;0.50;;
20655;SDS011;10487;53.320;8.672;2022-12-16T03:52:11;0.75;;;0.50;;
20655;SDS011;10487;53.320;8.672;2022-12-16T03:55:13;0.47;;;0.40;;
20655;SDS011;10487;53.320;8.672;2022-12-16T03:58:14;0.50;;;0.40;;
20655;SDS011;10487;53.320;8.672;2022-12-16T04:01:16;0.47;;;0.40;;
20655;SDS011;10487;53.320;8.672;2022-12-16T04:04:18;0.30;;;0.30;;
20655;SDS011;10487;53.320;8.672;2022-12-16T04:07:19;0.55;;;0.40;;
20655;SDS011;10487;53.320;8.672;2022-12-16T04:10:21;0.30;;;0.30;;
20655;SDS011;10487;53.320;8.672;2022-12-16T04:13:42;0.50;;;0.40;;
20655;SDS011;10487;53.320;8.672;2022-12-16T04:17:03;0.40;;;0.40;;
20655;SDS011;10487;53.320;8.672;2022-12-16T04:20:28;0.52;;;0.50;;
20655;SDS011;10487;53.320;8.672;2022-12-16T04:23:55;0.70;;;0.50;;
20655;SDS011;10487;53.320;8.672;2022-12-16T04:27:16;1.15;;;0.40;;
20655;SDS011;10487;53.320;8.672;2022-12-16T04:30:29;0.45;;;0.45;;
20655;SDS011;10487;53.320;8.672;2022-12-16T04:33:35;0.40;;;0.40;;
20655;SDS011;10487;53.320;8.672;2022-12-16T04:36:56;0.50;;;0.40;;
20655;SDS011;10487;53.320;8.672;2022-12-16T04:40:19;0.50;;;0.50;;
20655;SDS011;10487;53.320;8.672;2022-12-16T04:43:39;0.60;;;0.40;;
20655;SDS011;10487;53.320;8.672;2022-12-16T04:46:59;0.25;;;0.25;;
20655;SDS011;10487;53.320;8.672;2022-12-16T04:50:19;0.30;;;0.30;;
20655;SDS011;10487;53.320;8.672;2022-12-16T04:53:39;0.30;;;0.30;;
20655;SDS011;10487;53.320;8.672;2022-12-16T04:56:59;0.35;;;0.35;;
20655;SDS011;10487;53.320;8.672;2022-12-16T05:00:19;0.60;;;0.40;;
20655;SDS011;10487;53.320;8.672;2022-12-16T05:03:40;0.63;;;0.47;;
20655;SDS011;10487;53.320;8.672;2022-12-16T05:07:00;0.50;;;0.47;;
20655;SDS011;10487;53.320;8.672;2022-12-16T05:10:20;0.50;;;0.45;;
20655;SDS011;10487;53.320;8.672;2022-12-16T05:13:40;0.43;;;0.40;;
20655;SDS011;10487;53.320;8.672;2022-12-16T05:17:00;0.40;;;0.40;;
20655;SDS011;10487;53.320;8.672;2022-12-16T05:20:21;0.40;;;0.40;;
20655;SDS011;10487;53.320;8.672;2022-12-16T05:23:41;0.47;;;0.40;;
20655;SDS011;10487;53.320;8.672;2022-12-16T05:27:01;0.50;;;0.40;;
20655;SDS011;10487;53.320;8.672;2022-12-16T05:30:21;0.30;;;0.30;;
20655;SDS011;10487;53.320;8.672;2022-12-16T05:33:41;0.40;;;0.40;;
20655;SDS011;10487;53.320;8.672;2022-12-16T05:37:01;0.40;;;0.40;;
20655;SDS011;10487;53.320;8.672;2022-12-16T05:40:21;0.80;;;0.45;;
20655;SDS011;10487;53.320;8.672;2022-12-16T05:43:41;0.90;;;0.50;;
20655;SDS011;10487;53.320;8.672;2022-12-16T05:47:01;0.80;;;0.80;;
20655;SDS011;10487;53.320;8.672;2022-12-16T05:50:21;0.80;;;0.60;;
20655;SDS011;10487;53.320;8.672;2022-12-16T05:53:41;0.77;;;0.65;;
20655;SDS011;10487;53.320;8.672;2022-12-16T05:57:01;0.73;;;0.60;;
20655;SDS011;10487;53.320;8.672;2022-12-16T06:00:22;0.63;;;0.52;;
20655;SDS011;10487;53.320;8.672;2022-12-16T06:03:42;0.60;;;0.50;;
20655;SDS011;10487;53.320;8.672;2022-12-16T06:07:03;0.65;;;0.65;;
20655;SDS011;10487;53.320;8.672;2022-12-16T06:10:23;0.40;;;0.40;;
20655;SDS011;10487;53.320;8.672;2022-12-16T06:13:43;0.43;;;0.40;;
20655;SDS011;10487;53.320;8.672;2022-12-16T06:17:02;0.50;;;0.50;;
20655;SDS011;10487;53.320;8.672;2022-12-16T06:20:22;0.63;;;0.50;;
20655;SDS011;10487;53.320;8.672;2022-12-16T06:23:43;0.60;;;0.50;;
20655;SDS011;10487;53.320;8.672;2022-12-16T06:27:03;0.80;;;0.60;;
20655;SDS011;10487;53.320;8.672;2022-12-16T06:30:23;0.60;;;0.55;;
20655;SDS011;10487;53.320;8.672;2022-12-16T06:33:43;0.90;;;0.45;;
20655;SDS011;10487;53.320;8.672;2022-12-16T06:37:03;0.65;;;0.47;;
20655;SDS011;10487;53.320;8.672;2022-12-16T06:40:22;1.20;;;0.40;;
20655;SDS011;10487;53.320;8.672;2022-12-16T06:43:42;0.43;;;0.43;;
20655;SDS011;10487;53.320;8.672;2022-12-16T06:47:02;0.40;;;0.40;;
20655;SDS011;10487;53.320;8.672;2022-12-16T06:50:23;0.40;;;0.40;;
20655;SDS011;10487;53.320;8.672;2022-12-16T06:53:45;0.50;;;0.50;;
20655;SDS011;10487;53.320;8.672;2022-12-16T06:57:05;0.38;;;0.38;;
20655;SDS011;10487;53.320;8.672;2022-12-16T07:00:25;0.57;;;0.50;;
20655;SDS011;10487;53.320;8.672;2022-12-16T07:03:45;0.90;;;0.70;;
20655;SDS011;10487;53.320;8.672;2022-12-16T07:07:05;0.68;;;0.50;;
20655;SDS011;10487;53.320;8.672;2022-12-16T07:10:25;1.00;;;0.70;;
20655;SDS011;10487;53.320;8.672;2022-12-16T07:13:45;1.25;;;0.77;;
20655;SDS011;10487;53.320;8.672;2022-12-16T07:17:05;0.95;;;0.70;;
20655;SDS011;10487;53.320;8.672;2022-12-16T07:20:25;1.00;;;0.90;;
20655;SDS011;10487;53.320;8.672;2022-12-16T07:23:45;0.90;;;0.65;;
20655;SDS011;10487;53.320;8.672;2022-12-16T07:27:05;1.38;;;0.95;;
20655;SDS011;10487;53.320;8.672;2022-12-16T07:30:25;1.15;;;1.00;;
20655;SDS011;10487;53.320;8.672;2022-12-16T07:33:45;1.52;;;0.85;;
20655;SDS011;10487;53.320;8.672;2022-12-16T07:37:06;0.82;;;0.60;;
20655;SDS011;10487;53.320;8.672;2022-12-16T07:40:26;0.93;;;0.80;;
20655;SDS011;10487;53.320;8.672;2022-12-16T07:43:46;0.98;;;0.80;;
20655;SDS011;10487;53.320;8.672;2022-12-16T07:47:06;1.17;;;0.70;;
20655;SDS011;10487;53.320;8.672;2022-12-16T07:50:26;1.35;;;0.70;;
20655;SDS011;10487;53.320;8.672;2022-12-16T07:53:46;1.00;;;0.80;;
20655;SDS011;10487;53.320;8.672;2022-12-16T07:57:06;1.15;;;0.70;;
20655;SDS011;10487;53.320;8.672;2022-12-16T08:00:26;3.55;;;1.40;;
20655;SDS011;10487;53.320;8.672;2022-12-16T08:03:46;2.00;;;1.20;;
20655;SDS011;10487;53.320;8.672;2022-12-16T08:07:06;1.42;;;0.82;;
20655;SDS011;10487;53.320;8.672;2022-12-16T08:10:26;1.52;;;0.80;;
20655;SDS011;10487;53.320;8.672;2022-12-16T08:13:46;2.20;;;1.05;;
20655;SDS011;10487;53.320;8.672;2022-12-16T08:17:06;1.10;;;0.70;;
20655;SDS011;10487;53.320;8.672;2022-12-16T08:20:26;1.08;;;0.88;;
20655;SDS011;10487;53.320;8.672;2022-12-16T08:23:46;0.98;;;0.82;;
20655;SDS011;10487;53.320;8.672;2022-12-16T08:27:06;1.15;;;0.77;;
20655;SDS011;10487;53.320;8.672;2022-12-16T08:30:26;0.85;;;0.73;;
20655;SDS011;10487;53.320;8.672;2022-12-16T08:33:46;0.73;;;0.60;;
20655;SDS011;10487;53.320;8.672;2022-12-16T08:37:06;0.80;;;0.60;;
20655;SDS011;10487;53.320;8.672;2022-12-16T08:40:26;1.13;;;0.93;;
20655;SDS011;10487;53.320;8.672;2022-12-16T08:43:46;0.60;;;0.60;;
20655;SDS011;10487;53.320;8.672;2022-12-16T08:47:06;1.33;;;0.93;;
20655;SDS011;10487;53.320;8.672;2022-12-16T08:50:26;1.40;;;0.90;;
20655;SDS011;10487;53.320;8.672;2022-12-16T08:53:46;1.10;;;0.70;;
20655;SDS011;10487;53.320;8.672;2022-12-16T08:57:06;1.20;;;0.93;;
20655;SDS011;10487;53.320;8.672;2022-12-16T09:00:26;0.80;;;0.75;;
20655;SDS011;10487;53.320;8.672;2022-12-16T09:03:46;1.30;;;0.75;;
20655;SDS011;10487;53.320;8.672;2022-12-16T09:07:06;1.63;;;0.80;;
20655;SDS011;10487;53.320;8.672;2022-12-16T09:10:26;1.42;;;1.10;;
20655;SDS011;10487;53.320;8.672;2022-12-16T09:13:47;1.67;;;1.25;;
20655;SDS011;10487;53.320;8.672;2022-12-16T09:17:07;1.40;;;1.00;;
20655;SDS011;10487;53.320;8.672;2022-12-16T09:20:27;1.60;;;1.08;;
20655;SDS011;10487;53.320;8.672;2022-12-16T09:23:46;1.77;;;1.10;;
20655;SDS011;10487;53.320;8.672;2022-12-16T09:27:06;2.40;;;0.90;;
20655;SDS011;10487;53.320;8.672;2022-12-16T09:30:26;1.00;;;0.80;;
20655;SDS011;10487;53.320;8.672;2022-12-16T09:33:46;1.60;;;0.85;;
20655;SDS011;10487;53.320;8.672;2022-12-16T09:37:06;0.95;;;0.80;;
20655;SDS011;10487;53.320;8.672;2022-12-16T09:40:26;1.23;;;0.70;;
20655;SDS011;10487;53.320;8.672;2022-12-16T09:43:50;0.52;;;0.47;;
20655;SDS011;10487;53.320;8.672;2022-12-16T09:51:18;0.40;;;0.40;;
20655;SDS011;10487;53.320;8.672;2022-12-16T09:54:39;0.70;;;0.55;;
20655;SDS011;10487;53.320;8.672;2022-12-16T09:58:04;0.82;;;0.40;;
20655;SDS011;10487;53.320;8.672;2022-12-16T10:01:26;0.43;;;0.40;;
20655;SDS011;10487;53.320;8.672;2022-12-16T10:04:56;0.50;;;0.47;;
20655;SDS011;10487;53.320;8.672;2022-12-16T10:15:55;0.60;;;0.50;;
20655;SDS011;10487;53.320;8.672;2022-12-16T10:23:04;1.00;;;0.75;;
20655;SDS011;10487;53.320;8.672;2022-12-16T10:30:15;0.77;;;0.55;;
20655;SDS011;10487;53.320;8.672;2022-12-16T10:33:35;0.45;;;0.45;;
20655;SDS011;10487;53.320;8.672;2022-12-16T10:36:56;0.30;;;0.30;;
20655;SDS011;10487;53.320;8.672;2022-12-16T10:40:26;0.88;;;0.50;;
20655;SDS011;10487;53.320;8.672;2022-12-16T10:43:49;0.65;;;0.65;;
20655;SDS011;10487;53.320;8.672;2022-12-16T10:47:12;0.38;;;0.38;;
20655;SDS011;10487;53.320;8.672;2022-12-16T10:50:33;0.80;;;0.50;;
20655;SDS011;10487;53.320;8.672;2022-12-16T10:53:53;0.70;;;0.50;;
20655;SDS011;10487;53.320;8.672;2022-12-16T10:57:15;0.60;;;0.50;;
20655;SDS011;10487;53.320;8.672;2022-12-16T11:00:48;0.60;;;0.50;;
20655;SDS011;10487;53.320;8.672;2022-12-16T11:04:33;0.88;;;0.50;;
20655;SDS011;10487;53.320;8.672;2022-12-16T11:07:56;0.70;;;0.40;;
20655;SDS011;10487;53.320;8.672;2022-12-16T11:14:41;0.50;;;0.50;;
20655;SDS011;10487;53.320;8.672;2022-12-16T11:18:31;0.73;;;0.50;;
20655;SDS011;10487;53.320;8.672;2022-12-16T11:21:52;0.57;;;0.50;;
20655;SDS011;10487;53.320;8.672;2022-12-16T11:25:26;0.43;;;0.43;;
20655;SDS011;10487;53.320;8.672;2022-12-16T11:28:53;0.70;;;0.50;;
20655;SDS011;10487;53.320;8.672;2022-12-16T11:32:23;0.65;;;0.40;;
20655;SDS011;10487;53.320;8.672;2022-12-16T11:35:50;0.40;;;0.40;;
20655;SDS011;10487;53.320;8.672;2022-12-16T11:39:14;0.75;;;0.60;;
20655;SDS011;10487;53.320;8.672;2022-12-16T11:42:55;0.70;;;0.68;;
20655;SDS011;10487;53.320;8.672;2022-12-16T11:46:27;0.85;;;0.50;;
20655;SDS011;10487;53.320;8.672;2022-12-16T11:49:48;1.23;;;0.60;;
20655;SDS011;10487;53.320;8.672;2022-12-16T11:57:16;1.27;;;0.50;;
20655;SDS011;10487;53.320;8.672;2022-12-16T12:00:42;0.90;;;0.60;;
20655;SDS011;10487;53.320;8.672;2022-12-16T12:04:11;1.13;;;0.60;;
20655;SDS011;10487;53.320;8.672;2022-12-16T12:07:41;0.40;;;0.40;;
20655;SDS011;10487;53.320;8.672;2022-12-16T12:11:27;0.80;;;0.50;;
20655;SDS011;10487;53.320;8.672;2022-12-16T12:14:56;0.85;;;0.60;;
20655;SDS011;10487;53.320;8.672;2022-12-16T12:18:28;1.15;;;0.70;;
20655;SDS011;10487;53.320;8.672;2022-12-16T12:25:27;0.77;;;0.70;;
20655;SDS011;10487;53.320;8.672;2022-12-16T12:29:04;0.95;;;0.55;;
20655;SDS011;10487;53.320;8.672;2022-12-16T12:43:53;0.90;;;0.60;;
20655;SDS011;10487;53.320;8.672;2022-12-16T12:48:23;1.10;;;0.60;;
20655;SDS011;10487;53.320;8.672;2022-12-16T12:59:00;0.80;;;0.60;;
20655;SDS011;10487;53.320;8.672;2022-12-16T13:02:36;0.60;;;0.60;;
20655;SDS011;10487;53.320;8.672;2022-12-16T13:06:09;0.85;;;0.60;;
20655;SDS011;10487;53.320;8.672;2022-12-16T13:16:55;0.77;;;0.50;;
20655;SDS011;10487;53.320;8.672;2022-12-16T13:20:34;0.80;;;0.50;;
20655;SDS011;10487;53.320;8.672;2022-12-16T13:23:56;0.73;;;0.55;;
20655;SDS011;10487;53.320;8.672;2022-12-16T13:27:47;0.60;;;0.60;;
20655;SDS011;10487;53.320;8.672;2022-12-16T13:31:13;0.50;;;0.40;;
20655;SDS011;10487;53.320;8.672;2022-12-16T13:34:33;0.90;;;0.60;;
20655;SDS011;10487;53.320;8.672;2022-12-16T13:38:01;0.65;;;0.60;;
20655;SDS011;10487;53.320;8.672;2022-12-16T13:48:03;1.23;;;0.77;;
20655;SDS011;10487;53.320;8.672;2022-12-16T13:52:11;1.23;;;0.68;;
20655;SDS011;10487;53.320;8.672;2022-12-16T13:55:34;0.93;;;0.70;;
20655;SDS011;10487;53.320;8.672;2022-12-16T13:59:00;0.77;;;0.50;;
20655;SDS011;10487;53.320;8.672;2022-12-16T14:02:26;0.90;;;0.70;;
20655;SDS011;10487;53.320;8.672;2022-12-16T14:05:51;0.68;;;0.60;;
20655;SDS011;10487;53.320;8.672;2022-12-16T14:20:02;0.45;;;0.40;;
20655;SDS011;10487;53.320;8.672;2022-12-16T14:27:17;0.50;;;0.40;;
20655;SDS011;10487;53.320;8.672;2022-12-16T14:30:39;0.70;;;0.50;;
20655;SDS011;10487;53.320;8.672;2022-12-16T14:34:02;1.75;;;0.40;;
20655;SDS011;10487;53.320;8.672;2022-12-16T14:37:31;0.47;;;0.45;;
20655;SDS011;10487;53.320;8.672;2022-12-16T14:40:53;0.57;;;0.50;;
20655;SDS011;10487;53.320;8.672;2022-12-16T14:44:17;0.50;;;0.40;;
20655;SDS011;10487;53.320;8.672;2022-12-16T14:47:39;0.88;;;0.50;;
20655;SDS011;10487;53.320;8.672;2022-12-16T14:54:41;0.77;;;0.55;;
20655;SDS011;10487;53.320;8.672;2022-12-16T14:58:08;0.55;;;0.50;;
20655;SDS011;10487;53.320;8.672;2022-12-16T15:01:36;0.93;;;0.60;;
20655;SDS011;10487;53.320;8.672;2022-12-16T15:04:57;0.75;;;0.55;;
20655;SDS011;10487;53.320;8.672;2022-12-16T15:08:17;0.70;;;0.70;;
20655;SDS011;10487;53.320;8.672;2022-12-16T15:11:38;0.60;;;0.50;;
20655;SDS011;10487;53.320;8.672;2022-12-16T15:15:00;0.60;;;0.50;;
20655;SDS011;10487;53.320;8.672;2022-12-16T15:18:28;0.55;;;0.52;;
20655;SDS011;10487;53.320;8.672;2022-12-16T15:21:52;0.45;;;0.43;;
20655;SDS011;10487;53.320;8.672;2022-12-16T15:25:22;0.65;;;0.50;;
20655;SDS011;10487;53.320;8.672;2022-12-16T15:28:44;0.82;;;0.60;;
20655;SDS011;10487;53.320;8.672;2022-12-16T15:32:21;1.10;;;0.50;;
20655;SDS011;10487;53.320;8.672;2022-12-16T15:35:47;0.38;;;0.38;;
20655;SDS011;10487;53.320;8.672;2022-12-16T15:39:10;0.45;;;0.45;;
20655;SDS011;10487;53.320;8.672;2022-12-16T15:42:39;0.60;;;0.40;;
20655;SDS011;10487;53.320;8.672;2022-12-16T15:45:59;0.50;;;0.50;;
20655;SDS011;10487;53.320;8.672;2022-12-16T15:52:45;0.35;;;0.35;;
20655;SDS011;10487;53.320;8.672;2022-12-16T15:56:14;0.50;;;0.50;;
20655;SDS011;10487;53.320;8.672;2022-12-16T15:59:50;0.80;;;0.50;;
20655;SDS011;10487;53.320;8.672;2022-12-16T16:03:48;0.82;;;0.60;;
20655;SDS011;10487;53.320;8.672;2022-12-16T16:07:12;0.70;;;0.50;;
20655;SDS011;10487;53.320;8.672;2022-12-16T16:10:35;0.40;;;0.40;;
20655;SDS011;10487;53.320;8.672;2022-12-16T16:13:55;0.70;;;0.50;;
20655;SDS011;10487;53.320;8.672;2022-12-16T16:17:21;0.40;;;0.40;;
20655;SDS011;10487;53.320;8.672;2022-12-16T16:20:42;0.50;;;0.50;;
20655;SDS011;10487;53.320;8.672;2022-12-16T16:24:03;0.80;;;0.60;;
20655;SDS011;10487;53.320;8.672;2022-12-16T16:27:24;0.55;;;0.50;;
20655;SDS011;10487;53.320;8.672;2022-12-16T16:30:47;0.70;;;0.50;;
20655;SDS011;10487;53.320;8.672;2022-12-16T16:34:07;1.05;;;0.70;;
20655;SDS011;10487;53.320;8.672;2022-12-16T16:37:27;1.00;;;0.60;;
20655;SDS011;10487;53.320;8.672;2022-12-16T16:40:47;0.90;;;0.60;;
20655;SDS011;10487;53.320;8.672;2022-12-16T16:44:07;1.45;;;0.70;;
20655;SDS011;10487;53.320;8.672;2022-12-16T16:47:27;0.93;;;0.50;;
20655;SDS011;10487;53.320;8.672;2022-12-16T16:50:48;0.60;;;0.43;;
20655;SDS011;10487;53.320;8.672;2022-12-16T16:54:08;0.45;;;0.45;;
20655;SDS011;10487;53.320;8.672;2022-12-16T16:57:30;0.50;;;0.50;;
20655;SDS011;10487;53.320;8.672;2022-12-16T17:00:53;0.70;;;0.40;;
20655;SDS011;10487;53.320;8.672;2022-12-16T17:04:13;0.35;;;0.35;;
20655;SDS011;10487;53.320;8.672;2022-12-16T17:07:34;0.80;;;0.50;;
20655;SDS011;10487;53.320;8.672;2022-12-16T17:10:54;0.65;;;0.47;;
20655;SDS011;10487;53.320;8.672;2022-12-16T17:14:18;0.60;;;0.50;;
20655;SDS011;10487;53.320;8.672;2022-12-16T17:17:39;0.60;;;0.55;;
20655;SDS011;10487;53.320;8.672;2022-12-16T17:20:59;0.68;;;0.60;;
20655;SDS011;10487;53.320;8.672;2022-12-16T17:24:19;0.52;;;0.52;;
20655;SDS011;10487;53.320;8.672;2022-12-16T17:27:54;1.50;;;1.00;;
20655;SDS011;10487;53.320;8.672;2022-12-16T17:31:14;4.28;;;2.38;;
20655;SDS011;10487;53.320;8.672;2022-12-16T17:34:54;1.33;;;1.10;;
20655;SDS011;10487;53.320;8.672;2022-12-16T17:38:15;1.20;;;1.10;;
20655;SDS011;10487;53.320;8.672;2022-12-16T17:41:35;1.05;;;0.80;;
20655;SDS011;10487;53.320;8.672;2022-12-16T17:44:55;0.88;;;0.70;;
20655;SDS011;10487;53.320;8.672;2022-12-16T17:48:15;0.85;;;0.70;;
20655;SDS011;10487;53.320;8.672;2022-12-16T17:51:35;0.85;;;0.60;;
20655;SDS011;10487;53.320;8.672;2022-12-16T17:54:56;0.90;;;0.60;;
20655;SDS011;10487;53.320;8.672;2022-12-16T17:58:16;0.65;;;0.60;;
20655;SDS011;10487;53.320;8.672;2022-12-16T18:01:36;0.50;;;0.50;;
20655;SDS011;10487;53.320;8.672;2022-12-16T18:04:57;0.47;;;0.47;;
20655;SDS011;10487;53.320;8.672;2022-12-16T18:08:17;0.60;;;0.57;;
20655;SDS011;10487;53.320;8.672;2022-12-16T18:11:38;0.40;;;0.40;;
20655;SDS011;10487;53.320;8.672;2022-12-16T18:14:59;0.63;;;0.50;;
20655;SDS011;10487;53.320;8.672;2022-12-16T18:18:18;0.32;;;0.32;;
20655;SDS011;10487;53.320;8.672;2022-12-16T18:21:46;0.52;;;0.52;;
20655;SDS011;10487;53.320;8.672;2022-12-16T18:25:06;0.60;;;0.47;;
20655;SDS011;10487;53.320;8.672;2022-12-16T18:28:26;0.73;;;0.47;;
20655;SDS011;10487;53.320;8.672;2022-12-16T18:31:47;0.55;;;0.45;;
20655;SDS011;10487;53.320;8.672;2022-12-16T18:35:08;0.40;;;0.40;;
20655;SDS011;10487;53.320;8.672;2022-12-16T18:38:28;0.40;;;0.40;;
20655;SDS011;10487;53.320;8.672;2022-12-16T18:41:47;0.40;;;0.40;;
20655;SDS011;10487;53.320;8.672;2022-12-16T18:45:08;0.95;;;0.43;;
20655;SDS011;10487;53.320;8.672;2022-12-16T18:48:28;0.60;;;0.47;;
20655;SDS011;10487;53.320;8.672;2022-12-16T18:51:49;0.57;;;0.45;;
20655;SDS011;10487;53.320;8.672;2022-12-16T18:55:09;0.40;;;0.40;;
20655;SDS011;10487;53.320;8.672;2022-12-16T18:58:29;0.43;;;0.40;;
20655;SDS011;10487;53.320;8.672;2022-12-16T19:01:52;0.52;;;0.50;;
20655;SDS011;10487;53.320;8.672;2022-12-16T19:05:12;1.08;;;0.50;;
20655;SDS011;10487;53.320;8.672;2022-12-16T19:08:32;0.52;;;0.50;;
20655;SDS011;10487;53.320;8.672;2022-12-16T19:11:52;0.73;;;0.60;;
20655;SDS011;10487;53.320;8.672;2022-12-16T19:15:12;0.75;;;0.50;;
20655;SDS011;10487;53.320;8.672;2022-12-16T19:18:38;0.73;;;0.50;;
20655;SDS011;10487;53.320;8.672;2022-12-16T19:21:58;0.40;;;0.40;;
20655;SDS011;10487;53.320;8.672;2022-12-16T19:25:20;0.50;;;0.45;;
20655;SDS011;10487;53.320;8.672;2022-12-16T19:28:40;0.50;;;0.50;;
20655;SDS011;10487;53.320;8.672;2022-12-16T19:32:01;0.60;;;0.50;;
20655;SDS011;10487;53.320;8.672;2022-12-16T19:35:21;0.70;;;0.57;;
20655;SDS011;10487;53.320;8.672;2022-12-16T19:38:58;0.40;;;0.40;;
20655;SDS011;10487;53.320;8.672;2022-12-16T19:42:18;0.40;;;0.40;;
20655;SDS011;10487;53.320;8.672;2022-12-16T19:45:38;0.52;;;0.43;;
20655;SDS011;10487;53.320;8.672;2022-12-16T19:48:58;0.70;;;0.50;;
20655;SDS011;10487;53.320;8.672;2022-12-16T19:52:18;0.40;;;0.40;;
20655;SDS011;10487;53.320;8.672;2022-12-16T19:55:38;0.55;;;0.40;;
20655;SDS011;10487;53.320;8.672;2022-12-16T19:58:58;0.32;;;0.32;;
20655;SDS011;10487;53.320;8.672;2022-12-16T20:02:19;0.43;;;0.43;;
20655;SDS011;10487;53.320;8.672;2022-12-16T20:05:39;0.40;;;0.38;;
20655;SDS011;10487;53.320;8.672;2022-12-16T20:08:59;0.43;;;0.43;;
20655;SDS011;10487;53.320;8.672;2022-12-16T20:12:20;0.30;;;0.30;;
20655;SDS011;10487;53.320;8.672;2022-12-16T20:15:40;0.40;;;0.40;;
20655;SDS011;10487;53.320;8.672;2022-12-16T20:19:00;0.40;;;0.40;;
20655;SDS011;10487;53.320;8.672;2022-12-16T20:22:20;0.38;;;0.38;;
20655;SDS011;10487;53.320;8.672;2022-12-16T20:25:40;0.40;;;0.40;;
20655;SDS011;10487;53.320;8.672;2022-12-16T20:29:00;0.40;;;0.40;;
20655;SDS011;10487;53.320;8.672;2022-12-16T20:32:21;0.57;;;0.45;;
20655;SDS011;10487;53.320;8.672;2022-12-16T20:35:41;0.50;;;0.43;;
20655;SDS011;10487;53.320;8.672;2022-12-16T20:39:04;0.60;;;0.47;;
20655;SDS011;10487;53.320;8.672;2022-12-16T20:42:25;0.43;;;0.40;;
20655;SDS011;10487;53.320;8.672;2022-12-16T20:45:45;0.40;;;0.40;;
20655;SDS011;10487;53.320;8.672;2022-12-16T20:49:05;0.50;;;0.50;;
20655;SDS011;10487;53.320;8.672;2022-12-16T20:52:25;0.40;;;0.40;;
20655;SDS011;10487;53.320;8.672;2022-12-16T20:55:46;0.30;;;0.30;;
20655;SDS011;10487;53.320;8.672;2022-12-16T20:59:06;0.57;;;0.50;;
20655;SDS011;10487;53.320;8.672;2022-12-16T21:02:26;0.60;;;0.60;;
20655;SDS011;10487;53.320;8.672;2022-12-16T21:05:46;1.05;;;0.55;;
20655;SDS011;10487;53.320;8.672;2022-12-16T21:09:06;0.85;;;0.70;;
20655;SDS011;10487;53.320;8.672;2022-12-16T21:12:27;0.55;;;0.50;;
20655;SDS011;10487;53.320;8.672;2022-12-16T21:15:47;1.20;;;0.70;;
20655;SDS011;10487;53.320;8.672;2022-12-16T21:19:06;0.80;;;0.50;;
20655;SDS011;10487;53.320;8.672;2022-12-16T21:22:33;0.60;;;0.50;;
20655;SDS011;10487;53.320;8.672;2022-12-16T21:25:59;0.85;;;0.50;;
20655;SDS011;10487;53.320;8.672;2022-12-16T21:29:29;0.40;;;0.40;;
20655;SDS011;10487;53.320;8.672;2022-12-16T21:32:50;0.50;;;0.50;;
20655;SDS011;10487;53.320;8.672;2022-12-16T21:36:10;0.50;;;0.50;;
20655;SDS011;10487;53.320;8.672;2022-12-16T21:39:30;0.40;;;0.40;;
20655;SDS011;10487;53.320;8.672;2022-12-16T21:42:50;0.43;;;0.43;;
20655;SDS011;10487;53.320;8.672;2022-12-16T21:46:10;0.57;;;0.50;;
20655;SDS011;10487;53.320;8.672;2022-12-16T21:49:30;0.60;;;0.40;;
20655;SDS011;10487;53.320;8.672;2022-12-16T21:52:50;0.50;;;0.47;;
20655;SDS011;10487;53.320;8.672;2022-12-16T21:56:10;0.55;;;0.50;;
20655;SDS011;10487;53.320;8.672;2022-12-16T21:59:30;0.50;;;0.50;;
20655;SDS011;10487;53.320;8.672;2022-12-16T22:02:50;0.50;;;0.40;;
20655;SDS011;10487;53.320;8.672;2022-12-16T22:06:10;0.60;;;0.60;;